Henderson, TN

8:58 AM CDT on June 02, 2015 (GMT -0500)
RAWS | | Change Station
CLOSE
Current Station
Personal Weather Station
Location: Silerton, TN
Elevation: 438 ft
Nearby Weather Stations

Elev 438 ft 35.37 °N, 88.83 °W | Updated 51 minutes ago

Overcast
Overcast
63 °F
Feels Like 63 °F
N
2
Wind Variable Wind from NW
Gusts 5.0 mph

Today
High -- | Low -- °F
--% Chance of Precip.
Yesterday
High -- | Low -- °F
Precip. -- in
5:40 AM 8:04 PM
Full, 100% visible
Pressure 30.10 in
Visibility 10.0 miles
Clouds Scattered Clouds 1400 ft
Mostly Cloudy 1900 ft
Overcast 4700 ft
Dew Point 62 °F
Humidity 95%
Rainfall in
Snow Depth Not available.
UV 1 out of 12
Pollen 5.40 out of 12
Air Quality Not available.
Flu Activity Sporadic
METAR KMKL 021353Z AUTO 02005KT 10SM SCT014 BKN019 OVC047 19/16 A3011 RMK AO2 SLP192 T01890156

More Conditions Fewer Conditions

Pressure 30.10 in
Visibility 10.0 miles
Clouds Scattered Clouds 1400 ft
Mostly Cloudy 1900 ft
Overcast 4700 ft
Dew Point 62 °F
Humidity 95%
Rainfall in
Snow Depth Not available.
UV 1 out of 12
Pollen 5.40 out of 12
Air Quality Not available.
Flu Activity Sporadic
METAR KMKL 021353Z AUTO 02005KT 10SM SCT014 BKN019 OVC047 19/16 A3011 RMK AO2 SLP192 T01890156

More Conditions Fewer Conditions

10-Day Weather Forecast

Almanac

Astronomy

Jun. 02, 2015 Rise Set
Actual Time
Civil Twilight
Nautical Twilight
Astronomical Twilight
Moon
Length of Visible Light
Length of Day
Tomorrow will be .
, % of the Moon is Illuminated

Today's Extremes

State Highs State Lows

Community

WunderPhotos

Upload Photos

1,825,914 photos uploaded!

WunderBlogs® & News

Nearby

Air Quality

  Air Quality AQ Index Pollutant
Not available.

Snow Depth

Station Depth Elevation

Earthquake Activity

City Distance Mag. Time & Date
Minimum magnitude displayed is 2.5.

Coastal Water Temperatures

Place Temperature

Stations

Nearby Weather Stations

Station Location Temp. Windchill Dew Point Humidity Wind Precip. Elev Updated Type